Peter J Brix — WDH3546 — position and weather

sailwx.info

Track history (hours):
 
Tides and Currents Weather Stations Pressure Air Temp Water Temp Dewpoint Dewpoint Depression Visibility Wind Speed Wind Dir Waves Ship Positions

Peter J Brix

Owner: Brusco Tug & Barge, Inc., Longview, WA. More information available from US FCC via Universal Licensing System and Coast Guard Vessel Documentation Center.

Last reported at 2017-Dec-17 17:23 UTC. Time now 2017-Dec-17 17:42 UTC.
Position N 46°03' W 122°53'.

Length 25 m; draft 4.6 m.

Type: Towing. MMSI: 367608420.

Date/timePositionNaut miles runAvg speedWind from/ knotsBaromVisibWave heightAir tempDewpointWater temp
2017-Dec-17 17:23N 46°03' W 122°53'2 5.3
2017-Dec-17 17:00N 46°02' W 122°52'0 0.0
2017-Dec-17 16:30N 46°02' W 122°52'0 0.1
2017-Dec-17 16:00N 46°02' W 122°52'0 0.0
2017-Dec-17 15:30N 46°02' W 122°52'0 0.0
2017-Dec-17 15:00N 46°02' W 122°52'0 0.0
2017-Dec-17 14:30N 46°02' W 122°52'0 0.0
2017-Dec-17 14:00N 46°02' W 122°52'0 0.0
2017-Dec-17 13:31N 46°02' W 122°52'2 3.4
2017-Dec-17 13:00N 46°03' W 122°53'3 5.9
2017-Dec-17 12:30N 46°05' W 122°56'0 0.0
2017-Dec-17 12:00N 46°05' W 122°56'0 0.0
2017-Dec-17 11:30N 46°05' W 122°56'0 0.0
2017-Dec-17 11:00N 46°05' W 122°56'0 0.0
2017-Dec-17 10:31N 46°05' W 122°56'0 0.0
2017-Dec-17 10:00N 46°05' W 122°56'2 3.3
2017-Dec-17 09:30N 46°06' W 122°58'1 3.0
2017-Dec-17 09:00N 46°08' W 122°59'0 0.0
2017-Dec-17 08:31N 46°08' W 122°59'3 5.9
2017-Dec-17 08:00N 46°05' W 122°56'0 0.3
2017-Dec-17 07:30N 46°05' W 122°56'0 0.0
2017-Dec-17 07:00N 46°05' W 122°56'0 0.0
2017-Dec-17 06:30N 46°05' W 122°56'0 0.0
2017-Dec-17 06:00N 46°05' W 122°56'0 0.0
2017-Dec-17 05:30N 46°05' W 122°56'0 0.0
2017-Dec-17 05:00N 46°05' W 122°56'0 0.0
2017-Dec-17 04:30N 46°05' W 122°56'1 1.6
2017-Dec-17 03:52N 46°06' W 122°57'0 0.6
2017-Dec-17 03:30N 46°06' W 122°57'1 1.6
2017-Dec-17 03:00N 46°05' W 122°56'0 0.0
2017-Dec-17 02:30N 46°05' W 122°56'0 0.0
2017-Dec-17 02:00N 46°05' W 122°56'0 0.0
2017-Dec-17 01:31N 46°05' W 122°56'0 0.0
2017-Dec-17 01:00N 46°05' W 122°56'0 0.0
2017-Dec-17 00:25N 46°05' W 122°56'0 0.0
2017-Dec-17 00:00N 46°05' W 122°56'0 0.0
2017-Dec-16 23:28N 46°05' W 122°56'0 0.0
2017-Dec-16 23:00N 46°05' W 122°56'0 0.0
2017-Dec-16 22:30N 46°05' W 122°56'0 0.0
2017-Dec-16 22:00N 46°05' W 122°56'0 0.0
2017-Dec-16 21:30N 46°05' W 122°56'0 0.0
2017-Dec-16 21:00N 46°05' W 122°56'0 0.0
2017-Dec-16 20:30N 46°05' W 122°56'0 0.0
2017-Dec-16 20:00N 46°05' W 122°56'0 0.0
2017-Dec-16 19:30N 46°05' W 122°56'0 0.0
2017-Dec-16 19:00N 46°05' W 122°56'0 0.0
2017-Dec-16 18:30N 46°05' W 122°56'0 0.0
2017-Dec-16 18:00N 46°05' W 122°56'0 0.0
2017-Dec-16 17:30N 46°05' W 122°56'0 0.0
2017-Dec-16 17:00N 46°05' W 122°56'0 0.0
2017-Dec-16 16:30N 46°05' W 122°56'0 0.0
2017-Dec-16 16:00N 46°05' W 122°56'0 0.0
2017-Dec-16 15:30N 46°05' W 122°56'0 0.0
2017-Dec-16 15:01N 46°05' W 122°56'0 0.0
2017-Dec-16 14:30N 46°05' W 122°56'0 0.0
2017-Dec-16 14:00N 46°05' W 122°56'0 0.0
2017-Dec-16 13:30N 46°05' W 122°56'0 0.0
2017-Dec-16 13:00N 46°05' W 122°56'0 0.0
2017-Dec-16 12:30N 46°05' W 122°56'0 0.0
2017-Dec-16 12:00N 46°05' W 122°56'0 0.0
2017-Dec-16 11:30N 46°05' W 122°56'0 0.0
2017-Dec-16 11:00N 46°05' W 122°56'0 0.0
2017-Dec-16 10:30N 46°05' W 122°56'0 0.0
2017-Dec-16 10:00N 46°05' W 122°56'0 0.0
2017-Dec-16 09:30N 46°05' W 122°56'0 0.0
2017-Dec-16 09:00N 46°05' W 122°56'0 0.0
2017-Dec-16 08:30N 46°05' W 122°56'0 0.0
2017-Dec-16 08:00N 46°05' W 122°56'0 0.0
2017-Dec-16 07:30N 46°05' W 122°56'0 0.0
2017-Dec-16 07:00N 46°05' W 122°56'0 0.0
2017-Dec-16 06:30N 46°05' W 122°56'0 0.0
2017-Dec-16 06:00N 46°05' W 122°56'0 0.0
2017-Dec-16 05:30N 46°05' W 122°56'0 0.0
2017-Dec-16 04:55N 46°05' W 122°56'0 0.0
2017-Dec-16 04:30N 46°05' W 122°56'0 0.0
2017-Dec-16 04:00N 46°05' W 122°56'0 0.0
2017-Dec-16 03:30N 46°05' W 122°56'0 0.0
2017-Dec-16 03:00N 46°05' W 122°56'0 0.0
2017-Dec-16 02:30N 46°05' W 122°56'0 0.0
2017-Dec-16 02:00N 46°05' W 122°56'0 0.0
2017-Dec-16 01:30N 46°05' W 122°56'0 0.0
2017-Dec-16 01:00N 46°05' W 122°56'0 0.0
2017-Dec-16 00:30N 46°05' W 122°56'0 0.0
2017-Dec-16 00:00N 46°05' W 122°56'0 0.0
2017-Dec-15 23:30N 46°05' W 122°56'0 0.0
2017-Dec-15 22:57N 46°05' W 122°56'0 0.0
2017-Dec-15 21:20N 46°05' W 122°56'0 0.0
2017-Dec-15 21:00N 46°05' W 122°56'0 0.0
2017-Dec-15 20:16N 46°05' W 122°56'0 0.0
2017-Dec-15 20:00N 46°05' W 122°56'0 0.1
2017-Dec-15 19:21N 46°05' W 122°56'1 2.5
2017-Dec-15 19:00N 46°06' W 122°57'0 0.3
2017-Dec-15 18:30N 46°06' W 122°57'1 2.1
2017-Dec-15 18:00N 46°06' W 122°58'2 4.6
2017-Dec-15 17:30N 46°08' W 123°01'2 4.1
2017-Dec-15 17:00N 46°09' W 123°03'2 4.4
2017-Dec-15 16:29N 46°10' W 123°06'2 4.2
2017-Dec-15 16:00N 46°11' W 123°08'1 1.5
2017-Dec-15 15:30N 46°11' W 123°09'0 0.2
2017-Dec-15 15:00N 46°11' W 123°10'0 0.0
2017-Dec-15 14:30N 46°11' W 123°10'0 0.0
2017-Dec-15 13:54N 46°11' W 123°10'0 0.1
2017-Dec-15 13:30N 46°11' W 123°10'0 0.0
2017-Dec-15 12:23N 46°11' W 123°10'0 0.1
2017-Dec-15 11:59N 46°11' W 123°10'0 0.0
2017-Dec-15 11:30N 46°12' W 123°10'0 0.0
2017-Dec-15 11:00N 46°11' W 123°10'0 0.0
2017-Dec-15 10:30N 46°11' W 123°10'0 0.0
2017-Dec-15 09:52N 46°11' W 123°10'0 0.0
2017-Dec-15 09:20N 46°11' W 123°10'0 0.0
2017-Dec-15 09:00N 46°11' W 123°10'0 0.0
2017-Dec-15 08:30N 46°11' W 123°10'0 0.0
2017-Dec-15 08:00N 46°11' W 123°10'0 0.0
2017-Dec-15 07:30N 46°11' W 123°10'0 0.0
2017-Dec-15 07:00N 46°11' W 123°10'0 0.1
2017-Dec-15 06:28N 46°11' W 123°10'1 1.5
2017-Dec-15 06:00N 46°11' W 123°09'1111.7
2017-Dec-15 05:05N 46°05' W 122°56'0 0.0
2017-Dec-15 05:01N 46°05' W 122°56'0 0.0
2017-Dec-15 04:30N 46°05' W 122°56'0 0.0
2017-Dec-15 04:00N 46°05' W 122°56'0 0.0
2017-Dec-15 02:30N 46°05' W 122°56'0 0.0
2017-Dec-15 01:01N 46°05' W 122°56'0 0.0
2017-Dec-15 00:30N 46°05' W 122°56'0 0.0
2017-Dec-14 18:31N 46°05' W 122°56'0 0.0
2017-Dec-14 18:00N 46°05' W 122°56'0 0.0
2017-Dec-14 17:30N 46°05' W 122°56'0 0.0
2017-Dec-14 17:00N 46°05' W 122°56'0 0.0
2017-Dec-14 16:30N 46°05' W 122°56'0 0.0
2017-Dec-14 16:01N 46°05' W 122°56'0 0.0
2017-Dec-14 15:00N 46°05' W 122°56'0 0.0
2017-Dec-14 14:31N 46°05' W 122°56'0 0.0
2017-Dec-14 14:01N 46°05' W 122°56'0 0.0
2017-Dec-14 13:31N 46°05' W 122°56'0 0.0
2017-Dec-14 13:00N 46°05' W 122°56'0 0.0
2017-Dec-14 12:30N 46°05' W 122°56'0 0.0
2017-Dec-14 12:01N 46°05' W 122°56'0 0.0
2017-Dec-14 11:31N 46°05' W 122°56'0 0.0
2017-Dec-14 11:00N 46°05' W 122°56'0 0.0
2017-Dec-14 10:31N 46°05' W 122°56'0 0.0
2017-Dec-14 10:00N 46°05' W 122°56'0 0.0
2017-Dec-14 09:25N 46°05' W 122°56'0 0.0
2017-Dec-14 09:01N 46°05' W 122°56'0 0.0
2017-Dec-14 08:30N 46°05' W 122°56'0 0.0
2017-Dec-14 08:00N 46°05' W 122°56'0 0.0
2017-Dec-14 07:30N 46°05' W 122°56'0 0.0
2017-Dec-14 07:01N 46°05' W 122°56'0 0.0
2017-Dec-14 06:30N 46°05' W 122°56'0 0.0
2017-Dec-14 06:00N 46°05' W 122°56'0 0.0
2017-Dec-14 05:30N 46°05' W 122°56'0 0.0
2017-Dec-14 05:00N 46°05' W 122°56'0 0.0
2017-Dec-14 04:30N 46°05' W 122°56'0 0.0
2017-Dec-14 04:00N 46°05' W 122°56'0 0.0
2017-Dec-14 03:30N 46°05' W 122°56'0 0.0
2017-Dec-14 03:00N 46°05' W 122°56'0 0.0
2017-Dec-14 02:30N 46°05' W 122°56'0 0.0
2017-Dec-14 02:00N 46°05' W 122°56'0 0.1
2017-Dec-14 01:30N 46°05' W 122°56'3 6.1
2017-Dec-14 01:00N 46°08' W 122°59'0 0.3
2017-Dec-14 00:30N 46°08' W 122°59'1 2.9
2017-Dec-14 00:00N 46°08' W 123°01'3 5.5
2017-Dec-13 23:30N 46°06' W 122°58'2 3.8
2017-Dec-13 23:01N 46°05' W 122°56'0 0.0
2017-Dec-13 22:31N 46°05' W 122°56'0 0.0
2017-Dec-13 22:00N 46°05' W 122°56'0 0.0
2017-Dec-13 21:31N 46°05' W 122°56'0 0.0
2017-Dec-13 21:00N 46°05' W 122°56'0 0.0
2017-Dec-13 20:30N 46°05' W 122°56'0 0.0
2017-Dec-13 20:01N 46°05' W 122°56'0 0.0
2017-Dec-13 19:30N 46°05' W 122°56'0 0.0
2017-Dec-13 19:00N 46°05' W 122°56'0 0.0
2017-Dec-13 18:30N 46°05' W 122°56'0 0.0
2017-Dec-13 18:00N 46°05' W 122°56'0 0.0
2017-Dec-13 17:30N 46°05' W 122°56'0 0.0
2017-Dec-13 17:00N 46°05' W 122°56'0 0.0
2017-Dec-13 16:30N 46°05' W 122°56'0 0.0
2017-Dec-13 16:00N 46°05' W 122°56'0 0.0
2017-Dec-13 15:30N 46°05' W 122°56'0 0.0
2017-Dec-13 15:01N 46°05' W 122°56'0 0.0
2017-Dec-13 14:30N 46°05' W 122°56'0 0.0
2017-Dec-13 14:00N 46°05' W 122°56'0 0.0
2017-Dec-13 13:31N 46°05' W 122°56'0 0.0
2017-Dec-13 13:01N 46°05' W 122°56'0 0.0
2017-Dec-13 12:30N 46°05' W 122°56'0 0.0
2017-Dec-13 12:00N 46°05' W 122°56'0 0.0
2017-Dec-13 11:30N 46°05' W 122°56'0 0.0
2017-Dec-13 11:01N 46°05' W 122°56'0 0.0
2017-Dec-13 10:30N 46°05' W 122°56'0 0.0
2017-Dec-13 10:00N 46°05' W 122°56'0 0.0
2017-Dec-13 09:31N 46°05' W 122°56'0 0.0
2017-Dec-13 09:00N 46°05' W 122°56'0 0.0
2017-Dec-13 08:30N 46°05' W 122°56'0 0.0
2017-Dec-13 07:45N 46°05' W 122°56'0 0.0
2017-Dec-13 07:31N 46°05' W 122°56'0 0.0
2017-Dec-13 07:01N 46°05' W 122°56'0 0.0
2017-Dec-13 06:30N 46°05' W 122°56'0 0.0
2017-Dec-13 06:00N 46°05' W 122°56'0 0.0
2017-Dec-13 05:31N 46°05' W 122°56'0 0.0
2017-Dec-13 05:00N 46°05' W 122°56'0 0.0
2017-Dec-13 04:30N 46°05' W 122°56'0 0.0
2017-Dec-13 04:01N 46°05' W 122°56'0 0.0
2017-Dec-13 03:31N 46°05' W 122°56'0 0.0
2017-Dec-13 03:00N 46°05' W 122°56'4 7.3
2017-Dec-13 02:30N 46°02' W 122°53'0 0.3
2017-Dec-13 01:28N 46°02' W 122°53'1 1.5
2017-Dec-13 01:00N 46°02' W 122°52'0 0.0
2017-Dec-13 00:30N 46°02' W 122°52'4 7.0
2017-Dec-13 00:00N 46°05' W 122°54'1 2.6
2017-Dec-12 23:31N 46°05' W 122°56'0 0.0
2017-Dec-12 23:00N 46°05' W 122°56'0 0.0
2017-Dec-12 22:30N 46°05' W 122°56'0 0.0
2017-Dec-12 22:00N 46°05' W 122°56'0 0.0
2017-Dec-12 21:30N 46°05' W 122°56'0 0.0
2017-Dec-12 21:00N 46°05' W 122°56'0 0.0
2017-Dec-12 20:30N 46°05' W 122°56'0 0.0
2017-Dec-12 20:00N 46°05' W 122°56'0 0.0
2017-Dec-12 19:24N 46°05' W 122°56'0 0.0
2017-Dec-12 18:46N 46°05' W 122°56'0 0.0
2017-Dec-12 18:30N 46°05' W 122°56'0 0.0
2017-Dec-12 18:00N 46°05' W 122°56'0 0.0
2017-Dec-12 17:30N 46°05' W 122°56'0 0.0
2017-Dec-12 17:00N 46°05' W 122°56'0 0.0
2017-Dec-12 16:30N 46°05' W 122°56'0 0.0
2017-Dec-12 16:00N 46°05' W 122°56'0 0.0
2017-Dec-12 15:30N 46°05' W 122°56'0 0.0
2017-Dec-12 15:00N 46°05' W 122°56'0 0.0
2017-Dec-12 14:30N 46°05' W 122°56'0 0.0
2017-Dec-12 14:00N 46°05' W 122°56'0 0.0
2017-Dec-12 13:30N 46°05' W 122°56'0 0.0
2017-Dec-12 13:00N 46°05' W 122°56'0 0.0
2017-Dec-12 12:31N 46°05' W 122°56'0 0.0
2017-Dec-12 12:00N 46°05' W 122°56'0 0.0
2017-Dec-12 11:30N 46°05' W 122°56'0 0.0
2017-Dec-12 11:00N 46°05' W 122°56'0 0.0
2017-Dec-12 10:30N 46°05' W 122°56'0 0.0
2017-Dec-12 10:01N 46°05' W 122°56'0 0.0
2017-Dec-12 09:30N 46°05' W 122°56'0 0.0
2017-Dec-12 09:00N 46°05' W 122°56'0 0.0
2017-Dec-12 08:30N 46°05' W 122°56'0 0.0
2017-Dec-12 08:00N 46°05' W 122°56'0 0.0
2017-Dec-12 07:30N 46°05' W 122°56'0 0.0
2017-Dec-12 07:00N 46°05' W 122°56'0 0.0
2017-Dec-12 06:30N 46°05' W 122°56'0 0.0
2017-Dec-12 05:57N 46°05' W 122°56'0 0.0
2017-Dec-12 05:22N 46°05' W 122°56'0 0.0
2017-Dec-12 05:00N 46°05' W 122°56'0 0.0
2017-Dec-12 04:30N 46°05' W 122°56'0 0.0
2017-Dec-12 04:00N 46°05' W 122°56'0 0.0
2017-Dec-12 03:30N 46°05' W 122°56'0 0.0
2017-Dec-12 02:59N 46°05' W 122°56'0 0.0
2017-Dec-12 02:27N 46°05' W 122°56'0 0.0
2017-Dec-12 02:00N 46°05' W 122°56'0 0.0
2017-Dec-12 01:20N 46°05' W 122°56'0 0.0
2017-Dec-12 01:01N 46°05' W 122°56'0 0.0
2017-Dec-12 00:30N 46°05' W 122°56'0 0.0
2017-Dec-12 00:00N 46°05' W 122°56'0 0.0
2017-Dec-11 23:30N 46°05' W 122°56'0 0.0
2017-Dec-11 23:00N 46°05' W 122°56'0 0.0
2017-Dec-11 22:31N 46°05' W 122°56'0 0.0
2017-Dec-11 22:00N 46°05' W 122°56'0 0.0
2017-Dec-11 21:30N 46°05' W 122°56'0 0.0
2017-Dec-11 21:00N 46°05' W 122°56'0 0.0
2017-Dec-11 20:30N 46°05' W 122°56'0 0.0
2017-Dec-11 20:00N 46°05' W 122°56'0 0.0
2017-Dec-11 19:30N 46°05' W 122°56'0 0.0
2017-Dec-11 19:00N 46°05' W 122°56'0 0.0
2017-Dec-11 18:30N 46°05' W 122°56'0 0.0
2017-Dec-11 18:00N 46°05' W 122°56'0 0.0
2017-Dec-11 17:30N 46°05' W 122°56'0 0.0
2017-Dec-11 17:00N 46°05' W 122°56'0 0.0
2017-Dec-11 16:30N 46°05' W 122°56'0 0.0
2017-Dec-11 16:00N 46°05' W 122°56'0 0.0
2017-Dec-11 15:30N 46°05' W 122°56'0 0.0
2017-Dec-11 15:00N 46°05' W 122°56'0 0.0
2017-Dec-11 14:30N 46°05' W 122°56'0 0.0
2017-Dec-11 14:00N 46°05' W 122°56'0 0.0
2017-Dec-11 13:30N 46°05' W 122°56'0 0.0
2017-Dec-11 13:00N 46°05' W 122°56'0 0.0
2017-Dec-11 12:31N 46°05' W 122°56'0 0.0
2017-Dec-11 12:00N 46°05' W 122°56'0 0.0
2017-Dec-11 11:31N 46°05' W 122°56'0 0.0
2017-Dec-11 11:00N 46°05' W 122°56'0 0.0
2017-Dec-11 10:30N 46°05' W 122°56'0 0.0
2017-Dec-11 10:00N 46°05' W 122°56'0 0.0
2017-Dec-11 09:30N 46°05' W 122°56'0 0.0
2017-Dec-11 09:00N 46°05' W 122°56'2 2.7
2017-Dec-11 08:23N 46°04' W 122°54'3 8.0
2017-Dec-11 08:01N 46°02' W 122°52'0 1.0
2017-Dec-11 07:31N 46°02' W 122°53'1 1.7
2017-Dec-11 07:00N 46°03' W 122°53'3 5.7
2017-Dec-11 06:30N 46°05' W 122°55'0 0.9
2017-Dec-11 06:00N 46°05' W 122°56'0 0.0
2017-Dec-11 05:30N 46°05' W 122°56'0 0.0
2017-Dec-11 05:00N 46°05' W 122°56'0 0.0
2017-Dec-11 04:30N 46°05' W 122°56'0 0.0
2017-Dec-11 04:00N 46°05' W 122°56'0 0.0
2017-Dec-11 03:30N 46°05' W 122°56'0 0.0
2017-Dec-11 03:00N 46°05' W 122°56'0 0.0
2017-Dec-11 02:29N 46°05' W 122°56'0 0.0
2017-Dec-11 02:00N 46°05' W 122°56'0 0.0
2017-Dec-11 01:30N 46°05' W 122°56'0 0.0
2017-Dec-11 01:00N 46°05' W 122°56'0 0.0
2017-Dec-11 00:22N 46°05' W 122°56'0 0.0
2017-Dec-11 00:00N 46°05' W 122°56'0 0.0
2017-Dec-10 23:30N 46°05' W 122°56'0 0.0
2017-Dec-10 23:00N 46°05' W 122°56'0 0.0
2017-Dec-10 22:30N 46°05' W 122°56'0 0.0
2017-Dec-10 22:00N 46°05' W 122°56'0 0.0
2017-Dec-10 21:30N 46°05' W 122°56'0 0.0
2017-Dec-10 21:00N 46°05' W 122°56'0 0.0
2017-Dec-10 20:30N 46°05' W 122°56'0 0.0
2017-Dec-10 20:00N 46°05' W 122°56'0 0.0
2017-Dec-10 19:15N 46°05' W 122°56'0 0.0
2017-Dec-10 19:00N 46°05' W 122°56'0 0.0
2017-Dec-10 18:31N 46°05' W 122°56'0 0.0
2017-Dec-10 18:00N 46°05' W 122°56'0 0.0
2017-Dec-10 17:30N 46°05' W 122°56'0 0.0
2017-Dec-10 17:00N 46°05' W 122°56'0 0.0
2017-Dec-10 16:30N 46°05' W 122°56'0 0.0
2017-Dec-10 16:00N 46°05' W 122°56'0 0.0
2017-Dec-10 15:30N 46°05' W 122°56'0 0.0
2017-Dec-10 14:56N 46°05' W 122°56'0 0.0
2017-Dec-10 14:30N 46°05' W 122°56'0 0.0
2017-Dec-10 14:00N 46°05' W 122°56'4 5.5
2017-Dec-10 13:21N 46°02' W 122°53'1 2.9
2017-Dec-10 13:01N 46°02' W 122°52'0 0.0
2017-Dec-10 12:30N 46°02' W 122°52'0 0.0
2017-Dec-10 12:01N 46°02' W 122°52'1 2.9
2017-Dec-10 11:31N 46°03' W 122°53'3 6.4
2017-Dec-10 11:01N 46°05' W 122°56'0 0.0
2017-Dec-10 10:27N 46°05' W 122°56'0 0.0
2017-Dec-10 10:00N 46°05' W 122°56'0 0.0
2017-Dec-10 09:30N 46°05' W 122°56'0 0.0
2017-Dec-10 09:00N 46°05' W 122°56'0 0.0
2017-Dec-10 08:30N 46°05' W 122°56'0 0.0
2017-Dec-10 08:00N 46°05' W 122°56'0 0.0
2017-Dec-10 07:30N 46°05' W 122°56'0 0.0
2017-Dec-10 07:00N 46°05' W 122°56'0 0.0
2017-Dec-10 06:30N 46°05' W 122°56'0 0.0
2017-Dec-10 06:00N 46°05' W 122°56'0 0.0
2017-Dec-10 05:30N 46°05' W 122°56'0 0.0
2017-Dec-10 05:00N 46°05' W 122°56'0 0.0
2017-Dec-10 04:30N 46°05' W 122°56'0 0.0
2017-Dec-10 04:00N 46°05' W 122°56'0 0.0
2017-Dec-10 03:30N 46°05' W 122°56'0 0.0
2017-Dec-10 03:00N 46°05' W 122°56'0 0.0
2017-Dec-10 02:31N 46°05' W 122°56'0 0.0
2017-Dec-10 02:00N 46°05' W 122°56'0 0.0
2017-Dec-10 01:30N 46°05' W 122°56'0 0.0
2017-Dec-10 01:01N 46°05' W 122°56'0 0.0
2017-Dec-10 00:30N 46°05' W 122°56'0 0.0
2017-Dec-10 00:01N 46°05' W 122°56'0 0.0
2017-Dec-09 23:30N 46°05' W 122°56'0 0.0
2017-Dec-09 23:00N 46°05' W 122°56'0 0.0
2017-Dec-09 22:31N 46°05' W 122°56'0 0.0
2017-Dec-09 22:01N 46°05' W 122°56'0 0.0
2017-Dec-09 21:30N 46°05' W 122°56'0 0.0
2017-Dec-09 21:00N 46°05' W 122°56'0 0.0
2017-Dec-09 20:30N 46°05' W 122°56'0 0.0
2017-Dec-09 20:01N 46°05' W 122°56'0 0.0
2017-Dec-09 19:30N 46°05' W 122°56'0 0.0
2017-Dec-09 19:00N 46°05' W 122°56'0 0.0
2017-Dec-09 18:30N 46°05' W 122°56'0 0.0
2017-Dec-09 18:00N 46°05' W 122°56'0 0.0
2017-Dec-09 17:29N 46°05' W 122°56'0 0.0
2017-Dec-09 17:00N 46°05' W 122°56'0 0.0
2017-Dec-09 16:30N 46°05' W 122°56'0 0.0
2017-Dec-09 15:59N 46°05' W 122°56'0 0.0
2017-Dec-09 15:31N 46°05' W 122°56'0 0.0
2017-Dec-09 15:00N 46°05' W 122°56'0 0.0
2017-Dec-09 14:18N 46°05' W 122°56'0 0.0
2017-Dec-09 13:48N 46°05' W 122°56'0 0.0
2017-Dec-09 13:30N 46°05' W 122°56'0 0.0
2017-Dec-09 13:00N 46°05' W 122°56'0 0.0
2017-Dec-09 12:30N 46°05' W 122°56'0 0.0
2017-Dec-09 12:00N 46°05' W 122°56'0 0.0
2017-Dec-09 11:30N 46°05' W 122°56'0 0.0
2017-Dec-09 11:01N 46°05' W 122°56'0 0.0
2017-Dec-09 10:30N 46°05' W 122°56'0 0.0
2017-Dec-09 10:00N 46°05' W 122°56'0 0.0
2017-Dec-09 09:30N 46°05' W 122°56'0 0.0
2017-Dec-09 09:00N 46°05' W 122°56'0 0.0
2017-Dec-09 08:30N 46°05' W 122°56'0 0.0
2017-Dec-09 08:00N 46°05' W 122°56'0 0.0
2017-Dec-09 07:30N 46°05' W 122°56'0 0.0
2017-Dec-09 07:00N 46°05' W 122°56'0 0.0
2017-Dec-09 06:09N 46°05' W 122°56'0 0.0
2017-Dec-09 06:01N 46°05' W 122°56'0 0.0
2017-Dec-09 05:30N 46°05' W 122°56'0 0.8
2017-Dec-09 05:00N 46°05' W 122°55'4 8.2
2017-Dec-09 04:30N 46°02' W 122°52'0 0.1
2017-Dec-09 04:01N 46°02' W 122°53'1 2.3
2017-Dec-09 03:30N 46°03' W 122°53'3 6.3
2017-Dec-09 03:00N 46°05' W 122°55'0 0.6
2017-Dec-09 02:30N 46°05' W 122°56'0 0.2
2017-Dec-09 02:01N 46°05' W 122°56'0 0.0
2017-Dec-09 01:30N 46°05' W 122°56'0 0.0
2017-Dec-09 01:00N 46°05' W 122°56'0 0.0
2017-Dec-09 00:30N 46°05' W 122°56'0 0.0
2017-Dec-09 00:00N 46°05' W 122°56'0 0.0
2017-Dec-08 23:30N 46°05' W 122°56'0 0.0
2017-Dec-08 23:01N 46°05' W 122°56'0 0.0
2017-Dec-08 22:30N 46°05' W 122°56'0 0.0
2017-Dec-08 22:00N 46°05' W 122°56'0 0.0
2017-Dec-08 21:30N 46°05' W 122°56'0 0.0
2017-Dec-08 21:00N 46°05' W 122°56'0 0.0
2017-Dec-08 20:31N 46°05' W 122°56'0 0.0
2017-Dec-08 20:00N 46°05' W 122°56'0 0.0
2017-Dec-08 19:30N 46°05' W 122°56'0 0.0
2017-Dec-08 19:00N 46°05' W 122°56'0 0.0
2017-Dec-08 18:30N 46°05' W 122°56'0 0.0
2017-Dec-08 18:00N 46°05' W 122°56'0 0.0
2017-Dec-08 17:31N 46°05' W 122°56'0 0.0
2017-Dec-08 17:00N 46°05' W 122°56'0 0.0
2017-Dec-08 16:31N 46°05' W 122°56'0 0.0
2017-Dec-08 16:01N 46°05' W 122°56'0 0.0
2017-Dec-08 15:30N 46°05' W 122°56'0 0.0
2017-Dec-08 15:01N 46°05' W 122°56'0 0.0
2017-Dec-08 14:30N 46°05' W 122°56'2 4.1
2017-Dec-08 14:00N 46°04' W 122°54'3 5.4
2017-Dec-08 13:30N 46°02' W 122°52'0 0.0
2017-Dec-08 13:00N 46°02' W 122°52'2 3.2
2017-Dec-08 12:30N 46°03' W 122°53'2 3.6
2017-Dec-08 12:01N 46°05' W 122°54'1 2.8
2017-Dec-08 11:30N 46°05' W 122°56'0 0.0
2017-Dec-08 11:01N 46°05' W 122°56'0 0.0
2017-Dec-08 10:31N 46°05' W 122°56'0 0.0
2017-Dec-08 10:00N 46°05' W 122°56'0 0.0
2017-Dec-08 09:30N 46°05' W 122°56'0 0.0
2017-Dec-08 08:46N 46°05' W 122°56'0 0.0
2017-Dec-08 08:28N 46°05' W 122°56'0 0.0
2017-Dec-08 08:00N 46°05' W 122°56'0 0.0
2017-Dec-08 07:30N 46°05' W 122°56'0 0.0
2017-Dec-08 07:00N 46°05' W 122°56'0 0.0
2017-Dec-08 06:31N 46°05' W 122°56'4 8.1
2017-Dec-08 06:01N 46°02' W 122°53'611.1
2017-Dec-08 05:31N 45°57' W 122°49'510.9
2017-Dec-08 05:00N 45°52' W 122°47'510.1
2017-Dec-08 04:30N 45°47' W 122°46'510.2
2017-Dec-08 04:00N 45°42' W 122°46'4 9.0
2017-Dec-08 03:30N 45°37' W 122°47'2 4.4
2017-Dec-08 03:00N 45°35' W 122°46'0 0.0
2017-Dec-08 02:30N 45°35' W 122°46'0 0.0
2017-Dec-08 02:00N 45°35' W 122°46'0 0.0
2017-Dec-08 01:30N 45°35' W 122°46'0 0.0
2017-Dec-08 01:00N 45°35' W 122°46'0 0.0
2017-Dec-08 00:30N 45°35' W 122°46'0 0.0
2017-Dec-08 00:00N 45°35' W 122°46'0 0.0
2017-Dec-07 23:30N 45°35' W 122°46'0 0.0
2017-Dec-07 23:00N 45°35' W 122°46'0 0.0
2017-Dec-07 22:30N 45°35' W 122°46'0 0.0
2017-Dec-07 22:00N 45°35' W 122°46'0 0.0
2017-Dec-07 21:30N 45°35' W 122°46'0 0.0
2017-Dec-07 21:00N 45°35' W 122°46'0 0.0
2017-Dec-07 20:31N 45°35' W 122°46'0 0.0
2017-Dec-07 20:01N 45°35' W 122°46'0 0.0
2017-Dec-07 19:30N 45°35' W 122°46'0 0.0
2017-Dec-07 19:00N 45°35' W 122°46'0 0.0
2017-Dec-07 18:31N 45°35' W 122°46'0 0.0
2017-Dec-07 18:00N 45°35' W 122°46'0 0.0
2017-Dec-07 17:26N 45°35' W 122°46'  
Track history (hours):
 
Tides and Currents Weather Stations Pressure Air Temp Water Temp Dewpoint Dewpoint Depression Visibility Wind Speed Wind Dir Waves Ship Positions

Peter J Brix

Owner: Brusco Tug & Barge, Inc., Longview, WA. More information available from US FCC via Universal Licensing System and Coast Guard Vessel Documentation Center.

Last reported at 2017-Dec-17 17:23 UTC. Time now 2017-Dec-17 17:42 UTC.
Position N 46°03' W 122°53'.

Length 25 m; draft 4.6 m.

Type: Towing. MMSI: 367608420.

Date/timePositionNaut miles runAvg speedWind from/ knotsBaromVisibWave heightAir tempDewpointWater temp
2017-Dec-17 17:23N 46°03' W 122°53'2 5.3
2017-Dec-17 17:00N 46°02' W 122°52'0 0.0
2017-Dec-17 16:30N 46°02' W 122°52'0 0.1
2017-Dec-17 16:00N 46°02' W 122°52'0 0.0
2017-Dec-17 15:30N 46°02' W 122°52'0 0.0
2017-Dec-17 15:00N 46°02' W 122°52'0 0.0
2017-Dec-17 14:30N 46°02' W 122°52'0 0.0
2017-Dec-17 14:00N 46°02' W 122°52'0 0.0
2017-Dec-17 13:31N 46°02' W 122°52'2 3.4
2017-Dec-17 13:00N 46°03' W 122°53'3 5.9
2017-Dec-17 12:30N 46°05' W 122°56'0 0.0
2017-Dec-17 12:00N 46°05' W 122°56'0 0.0
2017-Dec-17 11:30N 46°05' W 122°56'0 0.0
2017-Dec-17 11:00N 46°05' W 122°56'0 0.0
2017-Dec-17 10:31N 46°05' W 122°56'0 0.0
2017-Dec-17 10:00N 46°05' W 122°56'2 3.3
2017-Dec-17 09:30N 46°06' W 122°58'1 3.0
2017-Dec-17 09:00N 46°08' W 122°59'0 0.0
2017-Dec-17 08:31N 46°08' W 122°59'3 5.9
2017-Dec-17 08:00N 46°05' W 122°56'0 0.3
2017-Dec-17 07:30N 46°05' W 122°56'0 0.0
2017-Dec-17 07:00N 46°05' W 122°56'0 0.0
2017-Dec-17 06:30N 46°05' W 122°56'0 0.0
2017-Dec-17 06:00N 46°05' W 122°56'0 0.0
2017-Dec-17 05:30N 46°05' W 122°56'0 0.0
2017-Dec-17 05:00N 46°05' W 122°56'0 0.0
2017-Dec-17 04:30N 46°05' W 122°56'1 1.6
2017-Dec-17 03:52N 46°06' W 122°57'0 0.6
2017-Dec-17 03:30N 46°06' W 122°57'1 1.6
2017-Dec-17 03:00N 46°05' W 122°56'0 0.0
2017-Dec-17 02:30N 46°05' W 122°56'0 0.0
2017-Dec-17 02:00N 46°05' W 122°56'0 0.0
2017-Dec-17 01:31N 46°05' W 122°56'0 0.0
2017-Dec-17 01:00N 46°05' W 122°56'0 0.0
2017-Dec-17 00:25N 46°05' W 122°56'0 0.0
2017-Dec-17 00:00N 46°05' W 122°56'0 0.0
2017-Dec-16 23:28N 46°05' W 122°56'0 0.0
2017-Dec-16 23:00N 46°05' W 122°56'0 0.0
2017-Dec-16 22:30N 46°05' W 122°56'0 0.0
2017-Dec-16 22:00N 46°05' W 122°56'0 0.0
2017-Dec-16 21:30N 46°05' W 122°56'0 0.0
2017-Dec-16 21:00N 46°05' W 122°56'0 0.0
2017-Dec-16 20:30N 46°05' W 122°56'0 0.0
2017-Dec-16 20:00N 46°05' W 122°56'0 0.0
2017-Dec-16 19:30N 46°05' W 122°56'0 0.0
2017-Dec-16 19:00N 46°05' W 122°56'0 0.0
2017-Dec-16 18:30N 46°05' W 122°56'0 0.0
2017-Dec-16 18:00N 46°05' W 122°56'0 0.0
2017-Dec-16 17:30N 46°05' W 122°56'0 0.0
2017-Dec-16 17:00N 46°05' W 122°56'0 0.0
2017-Dec-16 16:30N 46°05' W 122°56'0 0.0
2017-Dec-16 16:00N 46°05' W 122°56'0 0.0
2017-Dec-16 15:30N 46°05' W 122°56'0 0.0
2017-Dec-16 15:01N 46°05' W 122°56'0 0.0
2017-Dec-16 14:30N 46°05' W 122°56'0 0.0
2017-Dec-16 14:00N 46°05' W 122°56'0 0.0
2017-Dec-16 13:30N 46°05' W 122°56'0 0.0
2017-Dec-16 13:00N 46°05' W 122°56'0 0.0
2017-Dec-16 12:30N 46°05' W 122°56'0 0.0
2017-Dec-16 12:00N 46°05' W 122°56'0 0.0
2017-Dec-16 11:30N 46°05' W 122°56'0 0.0
2017-Dec-16 11:00N 46°05' W 122°56'0 0.0
2017-Dec-16 10:30N 46°05' W 122°56'0 0.0
2017-Dec-16 10:00N 46°05' W 122°56'0 0.0
2017-Dec-16 09:30N 46°05' W 122°56'0 0.0
2017-Dec-16 09:00N 46°05' W 122°56'0 0.0
2017-Dec-16 08:30N 46°05' W 122°56'0 0.0
2017-Dec-16 08:00N 46°05' W 122°56'0 0.0
2017-Dec-16 07:30N 46°05' W 122°56'0 0.0
2017-Dec-16 07:00N 46°05' W 122°56'0 0.0
2017-Dec-16 06:30N 46°05' W 122°56'0 0.0
2017-Dec-16 06:00N 46°05' W 122°56'0 0.0
2017-Dec-16 05:30N 46°05' W 122°56'0 0.0
2017-Dec-16 04:55N 46°05' W 122°56'0 0.0
2017-Dec-16 04:30N 46°05' W 122°56'0 0.0
2017-Dec-16 04:00N 46°05' W 122°56'0 0.0
2017-Dec-16 03:30N 46°05' W 122°56'0 0.0
2017-Dec-16 03:00N 46°05' W 122°56'0 0.0
2017-Dec-16 02:30N 46°05' W 122°56'0 0.0
2017-Dec-16 02:00N 46°05' W 122°56'0 0.0
2017-Dec-16 01:30N 46°05' W 122°56'0 0.0
2017-Dec-16 01:00N 46°05' W 122°56'0 0.0
2017-Dec-16 00:30N 46°05' W 122°56'0 0.0
2017-Dec-16 00:00N 46°05' W 122°56'0 0.0
2017-Dec-15 23:30N 46°05' W 122°56'0 0.0
2017-Dec-15 22:57N 46°05' W 122°56'0 0.0
2017-Dec-15 21:20N 46°05' W 122°56'0 0.0
2017-Dec-15 21:00N 46°05' W 122°56'0 0.0
2017-Dec-15 20:16N 46°05' W 122°56'0 0.0
2017-Dec-15 20:00N 46°05' W 122°56'0 0.1
2017-Dec-15 19:21N 46°05' W 122°56'1 2.5
2017-Dec-15 19:00N 46°06' W 122°57'0 0.3
2017-Dec-15 18:30N 46°06' W 122°57'1 2.1
2017-Dec-15 18:00N 46°06' W 122°58'2 4.6
2017-Dec-15 17:30N 46°08' W 123°01'2 4.1
2017-Dec-15 17:00N 46°09' W 123°03'2 4.4
2017-Dec-15 16:29N 46°10' W 123°06'2 4.2
2017-Dec-15 16:00N 46°11' W 123°08'1 1.5
2017-Dec-15 15:30N 46°11' W 123°09'0 0.2
2017-Dec-15 15:00N 46°11' W 123°10'0 0.0
2017-Dec-15 14:30N 46°11' W 123°10'0 0.0
2017-Dec-15 13:54N 46°11' W 123°10'0 0.1
2017-Dec-15 13:30N 46°11' W 123°10'0 0.0
2017-Dec-15 12:23N 46°11' W 123°10'0 0.1
2017-Dec-15 11:59N 46°11' W 123°10'0 0.0
2017-Dec-15 11:30N 46°12' W 123°10'0 0.0
2017-Dec-15 11:00N 46°11' W 123°10'0 0.0
2017-Dec-15 10:30N 46°11' W 123°10'0 0.0
2017-Dec-15 09:52N 46°11' W 123°10'0 0.0
2017-Dec-15 09:20N 46°11' W 123°10'0 0.0
2017-Dec-15 09:00N 46°11' W 123°10'0 0.0
2017-Dec-15 08:30N 46°11' W 123°10'0 0.0
2017-Dec-15 08:00N 46°11' W 123°10'0 0.0
2017-Dec-15 07:30N 46°11' W 123°10'0 0.0
2017-Dec-15 07:00N 46°11' W 123°10'0 0.1
2017-Dec-15 06:28N 46°11' W 123°10'1 1.5
2017-Dec-15 06:00N 46°11' W 123°09'1111.7
2017-Dec-15 05:05N 46°05' W 122°56'0 0.0
2017-Dec-15 05:01N 46°05' W 122°56'0 0.0
2017-Dec-15 04:30N 46°05' W 122°56'0 0.0
2017-Dec-15 04:00N 46°05' W 122°56'0 0.0
2017-Dec-15 02:30N 46°05' W 122°56'0 0.0
2017-Dec-15 01:01N 46°05' W 122°56'0 0.0
2017-Dec-15 00:30N 46°05' W 122°56'0 0.0
2017-Dec-14 18:31N 46°05' W 122°56'0 0.0
2017-Dec-14 18:00N 46°05' W 122°56'0 0.0
2017-Dec-14 17:30N 46°05' W 122°56'0 0.0
2017-Dec-14 17:00N 46°05' W 122°56'0 0.0
2017-Dec-14 16:30N 46°05' W 122°56'0 0.0
2017-Dec-14 16:01N 46°05' W 122°56'0 0.0
2017-Dec-14 15:00N 46°05' W 122°56'0 0.0
2017-Dec-14 14:31N 46°05' W 122°56'0 0.0
2017-Dec-14 14:01N 46°05' W 122°56'0 0.0
2017-Dec-14 13:31N 46°05' W 122°56'0 0.0
2017-Dec-14 13:00N 46°05' W 122°56'0 0.0
2017-Dec-14 12:30N 46°05' W 122°56'0 0.0
2017-Dec-14 12:01N 46°05' W 122°56'0 0.0
2017-Dec-14 11:31N 46°05' W 122°56'0 0.0
2017-Dec-14 11:00N 46°05' W 122°56'0 0.0
2017-Dec-14 10:31N 46°05' W 122°56'0 0.0
2017-Dec-14 10:00N 46°05' W 122°56'0 0.0
2017-Dec-14 09:25N 46°05' W 122°56'0 0.0
2017-Dec-14 09:01N 46°05' W 122°56'0 0.0
2017-Dec-14 08:30N 46°05' W 122°56'0 0.0
2017-Dec-14 08:00N 46°05' W 122°56'0 0.0
2017-Dec-14 07:30N 46°05' W 122°56'0 0.0
2017-Dec-14 07:01N 46°05' W 122°56'0 0.0
2017-Dec-14 06:30N 46°05' W 122°56'0 0.0
2017-Dec-14 06:00N 46°05' W 122°56'0 0.0
2017-Dec-14 05:30N 46°05' W 122°56'0 0.0
2017-Dec-14 05:00N 46°05' W 122°56'0 0.0
2017-Dec-14 04:30N 46°05' W 122°56'0 0.0
2017-Dec-14 04:00N 46°05' W 122°56'0 0.0
2017-Dec-14 03:30N 46°05' W 122°56'0 0.0
2017-Dec-14 03:00N 46°05' W 122°56'0 0.0
2017-Dec-14 02:30N 46°05' W 122°56'0 0.0
2017-Dec-14 02:00N 46°05' W 122°56'0 0.1
2017-Dec-14 01:30N 46°05' W 122°56'3 6.1
2017-Dec-14 01:00N 46°08' W 122°59'0 0.3
2017-Dec-14 00:30N 46°08' W 122°59'1 2.9
2017-Dec-14 00:00N 46°08' W 123°01'3 5.5
2017-Dec-13 23:30N 46°06' W 122°58'2 3.8
2017-Dec-13 23:01N 46°05' W 122°56'0 0.0
2017-Dec-13 22:31N 46°05' W 122°56'0 0.0
2017-Dec-13 22:00N 46°05' W 122°56'0 0.0
2017-Dec-13 21:31N 46°05' W 122°56'0 0.0
2017-Dec-13 21:00N 46°05' W 122°56'0 0.0
2017-Dec-13 20:30N 46°05' W 122°56'0 0.0
2017-Dec-13 20:01N 46°05' W 122°56'0 0.0
2017-Dec-13 19:30N 46°05' W 122°56'0 0.0
2017-Dec-13 19:00N 46°05' W 122°56'0 0.0
2017-Dec-13 18:30N 46°05' W 122°56'0 0.0
2017-Dec-13 18:00N 46°05' W 122°56'0 0.0
2017-Dec-13 17:30N 46°05' W 122°56'0 0.0
2017-Dec-13 17:00N 46°05' W 122°56'0 0.0
2017-Dec-13 16:30N 46°05' W 122°56'0 0.0
2017-Dec-13 16:00N 46°05' W 122°56'0 0.0
2017-Dec-13 15:30N 46°05' W 122°56'0 0.0
2017-Dec-13 15:01N 46°05' W 122°56'0 0.0
2017-Dec-13 14:30N 46°05' W 122°56'0 0.0
2017-Dec-13 14:00N 46°05' W 122°56'0 0.0
2017-Dec-13 13:31N 46°05' W 122°56'0 0.0
2017-Dec-13 13:01N 46°05' W 122°56'0 0.0
2017-Dec-13 12:30N 46°05' W 122°56'0 0.0
2017-Dec-13 12:00N 46°05' W 122°56'0 0.0
2017-Dec-13 11:30N 46°05' W 122°56'0 0.0
2017-Dec-13 11:01N 46°05' W 122°56'0 0.0
2017-Dec-13 10:30N 46°05' W 122°56'0 0.0
2017-Dec-13 10:00N 46°05' W 122°56'0 0.0
2017-Dec-13 09:31N 46°05' W 122°56'0 0.0
2017-Dec-13 09:00N 46°05' W 122°56'0 0.0
2017-Dec-13 08:30N 46°05' W 122°56'0 0.0
2017-Dec-13 07:45N 46°05' W 122°56'0 0.0
2017-Dec-13 07:31N 46°05' W 122°56'0 0.0
2017-Dec-13 07:01N 46°05' W 122°56'0 0.0
2017-Dec-13 06:30N 46°05' W 122°56'0 0.0
2017-Dec-13 06:00N 46°05' W 122°56'0 0.0
2017-Dec-13 05:31N 46°05' W 122°56'0 0.0
2017-Dec-13 05:00N 46°05' W 122°56'0 0.0
2017-Dec-13 04:30N 46°05' W 122°56'0 0.0
2017-Dec-13 04:01N 46°05' W 122°56'0 0.0
2017-Dec-13 03:31N 46°05' W 122°56'0 0.0
2017-Dec-13 03:00N 46°05' W 122°56'4 7.3
2017-Dec-13 02:30N 46°02' W 122°53'0 0.3
2017-Dec-13 01:28N 46°02' W 122°53'1 1.5
2017-Dec-13 01:00N 46°02' W 122°52'0 0.0
2017-Dec-13 00:30N 46°02' W 122°52'4 7.0
2017-Dec-13 00:00N 46°05' W 122°54'1 2.6
2017-Dec-12 23:31N 46°05' W 122°56'0 0.0
2017-Dec-12 23:00N 46°05' W 122°56'0 0.0
2017-Dec-12 22:30N 46°05' W 122°56'0 0.0
2017-Dec-12 22:00N 46°05' W 122°56'0 0.0
2017-Dec-12 21:30N 46°05' W 122°56'0 0.0
2017-Dec-12 21:00N 46°05' W 122°56'0 0.0
2017-Dec-12 20:30N 46°05' W 122°56'0 0.0
2017-Dec-12 20:00N 46°05' W 122°56'0 0.0
2017-Dec-12 19:24N 46°05' W 122°56'0 0.0
2017-Dec-12 18:46N 46°05' W 122°56'0 0.0
2017-Dec-12 18:30N 46°05' W 122°56'0 0.0
2017-Dec-12 18:00N 46°05' W 122°56'0 0.0
2017-Dec-12 17:30N 46°05' W 122°56'0 0.0
2017-Dec-12 17:00N 46°05' W 122°56'0 0.0
2017-Dec-12 16:30N 46°05' W 122°56'0 0.0
2017-Dec-12 16:00N 46°05' W 122°56'0 0.0
2017-Dec-12 15:30N 46°05' W 122°56'0 0.0
2017-Dec-12 15:00N 46°05' W 122°56'0 0.0
2017-Dec-12 14:30N 46°05' W 122°56'0 0.0
2017-Dec-12 14:00N 46°05' W 122°56'0 0.0
2017-Dec-12 13:30N 46°05' W 122°56'0 0.0
2017-Dec-12 13:00N 46°05' W 122°56'0 0.0
2017-Dec-12 12:31N 46°05' W 122°56'0 0.0
2017-Dec-12 12:00N 46°05' W 122°56'0 0.0
2017-Dec-12 11:30N 46°05' W 122°56'0 0.0
2017-Dec-12 11:00N 46°05' W 122°56'0 0.0
2017-Dec-12 10:30N 46°05' W 122°56'0 0.0
2017-Dec-12 10:01N 46°05' W 122°56'0 0.0
2017-Dec-12 09:30N 46°05' W 122°56'0 0.0
2017-Dec-12 09:00N 46°05' W 122°56'0 0.0
2017-Dec-12 08:30N 46°05' W 122°56'0 0.0
2017-Dec-12 08:00N 46°05' W 122°56'0 0.0
2017-Dec-12 07:30N 46°05' W 122°56'0 0.0
2017-Dec-12 07:00N 46°05' W 122°56'0 0.0
2017-Dec-12 06:30N 46°05' W 122°56'0 0.0
2017-Dec-12 05:57N 46°05' W 122°56'0 0.0
2017-Dec-12 05:22N 46°05' W 122°56'0 0.0
2017-Dec-12 05:00N 46°05' W 122°56'0 0.0
2017-Dec-12 04:30N 46°05' W 122°56'0 0.0
2017-Dec-12 04:00N 46°05' W 122°56'0 0.0
2017-Dec-12 03:30N 46°05' W 122°56'0 0.0
2017-Dec-12 02:59N 46°05' W 122°56'0 0.0
2017-Dec-12 02:27N 46°05' W 122°56'0 0.0
2017-Dec-12 02:00N 46°05' W 122°56'0 0.0
2017-Dec-12 01:20N 46°05' W 122°56'0 0.0
2017-Dec-12 01:01N 46°05' W 122°56'0 0.0
2017-Dec-12 00:30N 46°05' W 122°56'0 0.0
2017-Dec-12 00:00N 46°05' W 122°56'0 0.0
2017-Dec-11 23:30N 46°05' W 122°56'0 0.0
2017-Dec-11 23:00N 46°05' W 122°56'0 0.0
2017-Dec-11 22:31N 46°05' W 122°56'0 0.0
2017-Dec-11 22:00N 46°05' W 122°56'0 0.0
2017-Dec-11 21:30N 46°05' W 122°56'0 0.0
2017-Dec-11 21:00N 46°05' W 122°56'0 0.0
2017-Dec-11 20:30N 46°05' W 122°56'0 0.0
2017-Dec-11 20:00N 46°05' W 122°56'0 0.0
2017-Dec-11 19:30N 46°05' W 122°56'0 0.0
2017-Dec-11 19:00N 46°05' W 122°56'0 0.0
2017-Dec-11 18:30N 46°05' W 122°56'0 0.0
2017-Dec-11 18:00N 46°05' W 122°56'0 0.0
2017-Dec-11 17:30N 46°05' W 122°56'0 0.0
2017-Dec-11 17:00N 46°05' W 122°56'0 0.0
2017-Dec-11 16:30N 46°05' W 122°56'0 0.0
2017-Dec-11 16:00N 46°05' W 122°56'0 0.0
2017-Dec-11 15:30N 46°05' W 122°56'0 0.0
2017-Dec-11 15:00N 46°05' W 122°56'0 0.0
2017-Dec-11 14:30N 46°05' W 122°56'0 0.0
2017-Dec-11 14:00N 46°05' W 122°56'0 0.0
2017-Dec-11 13:30N 46°05' W 122°56'0 0.0
2017-Dec-11 13:00N 46°05' W 122°56'0 0.0
2017-Dec-11 12:31N 46°05' W 122°56'0 0.0
2017-Dec-11 12:00N 46°05' W 122°56'0 0.0
2017-Dec-11 11:31N 46°05' W 122°56'0 0.0
2017-Dec-11 11:00N 46°05' W 122°56'0 0.0
2017-Dec-11 10:30N 46°05' W 122°56'0 0.0
2017-Dec-11 10:00N 46°05' W 122°56'0 0.0
2017-Dec-11 09:30N 46°05' W 122°56'0 0.0
2017-Dec-11 09:00N 46°05' W 122°56'2 2.7
2017-Dec-11 08:23N 46°04' W 122°54'3 8.0
2017-Dec-11 08:01N 46°02' W 122°52'0 1.0
2017-Dec-11 07:31N 46°02' W 122°53'1 1.7
2017-Dec-11 07:00N 46°03' W 122°53'3 5.7
2017-Dec-11 06:30N 46°05' W 122°55'0 0.9
2017-Dec-11 06:00N 46°05' W 122°56'0 0.0
2017-Dec-11 05:30N 46°05' W 122°56'0 0.0
2017-Dec-11 05:00N 46°05' W 122°56'0 0.0
2017-Dec-11 04:30N 46°05' W 122°56'0 0.0
2017-Dec-11 04:00N 46°05' W 122°56'0 0.0
2017-Dec-11 03:30N 46°05' W 122°56'0 0.0
2017-Dec-11 03:00N 46°05' W 122°56'0 0.0
2017-Dec-11 02:29N 46°05' W 122°56'0 0.0
2017-Dec-11 02:00N 46°05' W 122°56'0 0.0
2017-Dec-11 01:30N 46°05' W 122°56'0 0.0
2017-Dec-11 01:00N 46°05' W 122°56'0 0.0
2017-Dec-11 00:22N 46°05' W 122°56'0 0.0
2017-Dec-11 00:00N 46°05' W 122°56'0 0.0
2017-Dec-10 23:30N 46°05' W 122°56'0 0.0
2017-Dec-10 23:00N 46°05' W 122°56'0 0.0
2017-Dec-10 22:30N 46°05' W 122°56'0 0.0
2017-Dec-10 22:00N 46°05' W 122°56'0 0.0
2017-Dec-10 21:30N 46°05' W 122°56'0 0.0
2017-Dec-10 21:00N 46°05' W 122°56'0 0.0
2017-Dec-10 20:30N 46°05' W 122°56'0 0.0
2017-Dec-10 20:00N 46°05' W 122°56'0 0.0
2017-Dec-10 19:15N 46°05' W 122°56'0 0.0
2017-Dec-10 19:00N 46°05' W 122°56'0 0.0
2017-Dec-10 18:31N 46°05' W 122°56'0 0.0
2017-Dec-10 18:00N 46°05' W 122°56'0 0.0
2017-Dec-10 17:30N 46°05' W 122°56'0 0.0
2017-Dec-10 17:00N 46°05' W 122°56'0 0.0
2017-Dec-10 16:30N 46°05' W 122°56'0 0.0
2017-Dec-10 16:00N 46°05' W 122°56'0 0.0
2017-Dec-10 15:30N 46°05' W 122°56'0 0.0
2017-Dec-10 14:56N 46°05' W 122°56'0 0.0
2017-Dec-10 14:30N 46°05' W 122°56'0 0.0
2017-Dec-10 14:00N 46°05' W 122°56'4 5.5
2017-Dec-10 13:21N 46°02' W 122°53'1 2.9
2017-Dec-10 13:01N 46°02' W 122°52'0 0.0
2017-Dec-10 12:30N 46°02' W 122°52'0 0.0
2017-Dec-10 12:01N 46°02' W 122°52'1 2.9
2017-Dec-10 11:31N 46°03' W 122°53'3 6.4
2017-Dec-10 11:01N 46°05' W 122°56'0 0.0
2017-Dec-10 10:27N 46°05' W 122°56'0 0.0
2017-Dec-10 10:00N 46°05' W 122°56'0 0.0
2017-Dec-10 09:30N 46°05' W 122°56'0 0.0
2017-Dec-10 09:00N 46°05' W 122°56'0 0.0
2017-Dec-10 08:30N 46°05' W 122°56'0 0.0
2017-Dec-10 08:00N 46°05' W 122°56'0 0.0
2017-Dec-10 07:30N 46°05' W 122°56'0 0.0
2017-Dec-10 07:00N 46°05' W 122°56'0 0.0
2017-Dec-10 06:30N 46°05' W 122°56'0 0.0
2017-Dec-10 06:00N 46°05' W 122°56'0 0.0
2017-Dec-10 05:30N 46°05' W 122°56'0 0.0
2017-Dec-10 05:00N 46°05' W 122°56'0 0.0
2017-Dec-10 04:30N 46°05' W 122°56'0 0.0
2017-Dec-10 04:00N 46°05' W 122°56'0 0.0
2017-Dec-10 03:30N 46°05' W 122°56'0 0.0
2017-Dec-10 03:00N 46°05' W 122°56'0 0.0
2017-Dec-10 02:31N 46°05' W 122°56'0 0.0
2017-Dec-10 02:00N 46°05' W 122°56'0 0.0
2017-Dec-10 01:30N 46°05' W 122°56'0 0.0
2017-Dec-10 01:01N 46°05' W 122°56'0 0.0
2017-Dec-10 00:30N 46°05' W 122°56'0 0.0
2017-Dec-10 00:01N 46°05' W 122°56'0 0.0
2017-Dec-09 23:30N 46°05' W 122°56'0 0.0
2017-Dec-09 23:00N 46°05' W 122°56'0 0.0
2017-Dec-09 22:31N 46°05' W 122°56'0 0.0
2017-Dec-09 22:01N 46°05' W 122°56'0 0.0
2017-Dec-09 21:30N 46°05' W 122°56'0 0.0
2017-Dec-09 21:00N 46°05' W 122°56'0 0.0
2017-Dec-09 20:30N 46°05' W 122°56'0 0.0
2017-Dec-09 20:01N 46°05' W 122°56'0 0.0
2017-Dec-09 19:30N 46°05' W 122°56'0 0.0
2017-Dec-09 19:00N 46°05' W 122°56'0 0.0
2017-Dec-09 18:30N 46°05' W 122°56'0 0.0
2017-Dec-09 18:00N 46°05' W 122°56'0 0.0
2017-Dec-09 17:29N 46°05' W 122°56'0 0.0
2017-Dec-09 17:00N 46°05' W 122°56'0 0.0
2017-Dec-09 16:30N 46°05' W 122°56'0 0.0
2017-Dec-09 15:59N 46°05' W 122°56'0 0.0
2017-Dec-09 15:31N 46°05' W 122°56'0 0.0
2017-Dec-09 15:00N 46°05' W 122°56'0 0.0
2017-Dec-09 14:18N 46°05' W 122°56'0 0.0
2017-Dec-09 13:48N 46°05' W 122°56'0 0.0
2017-Dec-09 13:30N 46°05' W 122°56'0 0.0
2017-Dec-09 13:00N 46°05' W 122°56'0 0.0
2017-Dec-09 12:30N 46°05' W 122°56'0 0.0
2017-Dec-09 12:00N 46°05' W 122°56'0 0.0
2017-Dec-09 11:30N 46°05' W 122°56'0 0.0
2017-Dec-09 11:01N 46°05' W 122°56'0 0.0
2017-Dec-09 10:30N 46°05' W 122°56'0 0.0
2017-Dec-09 10:00N 46°05' W 122°56'0 0.0
2017-Dec-09 09:30N 46°05' W 122°56'0 0.0
2017-Dec-09 09:00N 46°05' W 122°56'0 0.0
2017-Dec-09 08:30N 46°05' W 122°56'0 0.0
2017-Dec-09 08:00N 46°05' W 122°56'0 0.0
2017-Dec-09 07:30N 46°05' W 122°56'0 0.0
2017-Dec-09 07:00N 46°05' W 122°56'0 0.0
2017-Dec-09 06:09N 46°05' W 122°56'0 0.0
2017-Dec-09 06:01N 46°05' W 122°56'0 0.0
2017-Dec-09 05:30N 46°05' W 122°56'0 0.8
2017-Dec-09 05:00N 46°05' W 122°55'4 8.2
2017-Dec-09 04:30N 46°02' W 122°52'0 0.1
2017-Dec-09 04:01N 46°02' W 122°53'1 2.3
2017-Dec-09 03:30N 46°03' W 122°53'3 6.3
2017-Dec-09 03:00N 46°05' W 122°55'0 0.6
2017-Dec-09 02:30N 46°05' W 122°56'0 0.2
2017-Dec-09 02:01N 46°05' W 122°56'0 0.0
2017-Dec-09 01:30N 46°05' W 122°56'0 0.0
2017-Dec-09 01:00N 46°05' W 122°56'0 0.0
2017-Dec-09 00:30N 46°05' W 122°56'0 0.0
2017-Dec-09 00:00N 46°05' W 122°56'0 0.0
2017-Dec-08 23:30N 46°05' W 122°56'0 0.0
2017-Dec-08 23:01N 46°05' W 122°56'0 0.0
2017-Dec-08 22:30N 46°05' W 122°56'0 0.0
2017-Dec-08 22:00N 46°05' W 122°56'0 0.0
2017-Dec-08 21:30N 46°05' W 122°56'0 0.0
2017-Dec-08 21:00N 46°05' W 122°56'0 0.0
2017-Dec-08 20:31N 46°05' W 122°56'0 0.0
2017-Dec-08 20:00N 46°05' W 122°56'0 0.0
2017-Dec-08 19:30N 46°05' W 122°56'0 0.0
2017-Dec-08 19:00N 46°05' W 122°56'0 0.0
2017-Dec-08 18:30N 46°05' W 122°56'0 0.0
2017-Dec-08 18:00N 46°05' W 122°56'0 0.0
2017-Dec-08 17:31N 46°05' W 122°56'0 0.0
2017-Dec-08 17:00N 46°05' W 122°56'0 0.0
2017-Dec-08 16:31N 46°05' W 122°56'0 0.0
2017-Dec-08 16:01N 46°05' W 122°56'0 0.0
2017-Dec-08 15:30N 46°05' W 122°56'0 0.0
2017-Dec-08 15:01N 46°05' W 122°56'0 0.0
2017-Dec-08 14:30N 46°05' W 122°56'2 4.1
2017-Dec-08 14:00N 46°04' W 122°54'3 5.4
2017-Dec-08 13:30N 46°02' W 122°52'0 0.0
2017-Dec-08 13:00N 46°02' W 122°52'2 3.2
2017-Dec-08 12:30N 46°03' W 122°53'2 3.6
2017-Dec-08 12:01N 46°05' W 122°54'1 2.8
2017-Dec-08 11:30N 46°05' W 122°56'0 0.0
2017-Dec-08 11:01N 46°05' W 122°56'0 0.0
2017-Dec-08 10:31N 46°05' W 122°56'0 0.0
2017-Dec-08 10:00N 46°05' W 122°56'0 0.0
2017-Dec-08 09:30N 46°05' W 122°56'0 0.0
2017-Dec-08 08:46N 46°05' W 122°56'0 0.0
2017-Dec-08 08:28N 46°05' W 122°56'0 0.0
2017-Dec-08 08:00N 46°05' W 122°56'0 0.0
2017-Dec-08 07:30N 46°05' W 122°56'0 0.0
2017-Dec-08 07:00N 46°05' W 122°56'0 0.0
2017-Dec-08 06:31N 46°05' W 122°56'4 8.1
2017-Dec-08 06:01N 46°02' W 122°53'611.1
2017-Dec-08 05:31N 45°57' W 122°49'510.9
2017-Dec-08 05:00N 45°52' W 122°47'510.1
2017-Dec-08 04:30N 45°47' W 122°46'510.2
2017-Dec-08 04:00N 45°42' W 122°46'4 9.0
2017-Dec-08 03:30N 45°37' W 122°47'2 4.4
2017-Dec-08 03:00N 45°35' W 122°46'0 0.0
2017-Dec-08 02:30N 45°35' W 122°46'0 0.0
2017-Dec-08 02:00N 45°35' W 122°46'0 0.0
2017-Dec-08 01:30N 45°35' W 122°46'0 0.0
2017-Dec-08 01:00N 45°35' W 122°46'0 0.0
2017-Dec-08 00:30N 45°35' W 122°46'0 0.0
2017-Dec-08 00:00N 45°35' W 122°46'0 0.0
2017-Dec-07 23:30N 45°35' W 122°46'0 0.0
2017-Dec-07 23:00N 45°35' W 122°46'0 0.0
2017-Dec-07 22:30N 45°35' W 122°46'0 0.0
2017-Dec-07 22:00N 45°35' W 122°46'0 0.0
2017-Dec-07 21:30N 45°35' W 122°46'0 0.0
2017-Dec-07 21:00N 45°35' W 122°46'0 0.0
2017-Dec-07 20:31N 45°35' W 122°46'0 0.0
2017-Dec-07 20:01N 45°35' W 122°46'0 0.0
2017-Dec-07 19:30N 45°35' W 122°46'0 0.0
2017-Dec-07 19:00N 45°35' W 122°46'0 0.0
2017-Dec-07 18:31N 45°35' W 122°46'0 0.0
2017-Dec-07 18:00N 45°35' W 122°46'0 0.0
2017-Dec-07 17:26N 45°35' W 122°46'  

Dump ship's entire track history